Карточка аэропорта UMGG

Внимание!
Информация на этой странице в стадии наполнения.
Если вы не увидели какой-то информации, или заметили неточность - пожалуйста сообщите нам!
Спасибо!
Команда RU-STAFF
Название аэропортаGomel
Название аэропорта (англ.)Gomel
Превышение471 ft. (143.6 m.)
Координаты52°31.614', 31°1.002'
Высота перехода6000 ft
Эшелон переходаFL80; QNH<977hPa - FL90
Коды ответчика0030−0032; 6230-6277
Зона ОрВДМинск РПИ (UMMV)
Данные METARUMGG 210800Z 25005MPS 8000 -SHSNRA OVC005CB 01/M00 Q1018 NOSIG RMK QBB170
Проноз погоды (TAF)UMGG 210510Z 2106/2206 20004MPS 3000 -SNRA BR BKN004 TEMPO 2106/2109 24005MPS 2100 -SHSNRA BKN003 SCT015CB FM210900 24005MPS 6000 BKN010 TEMPO 2109/2118 27003MPS 3000 -SHRASN BKN005 SCT015CB BECMG 2118/2120 19006MPS TEMPO 2118/2206 3000 -SHRASN BKN010 SCT015CB
NOTAMshow/hide NOTAM
AWOS   TABLE

Информация о ВПП

ВПП Длина ВПП (м.) Покрытие Курс ВПП Частота ILS
102569Цементобетон103109.3
282569Цементобетон283108.7

Диспетчерские позиции

Позывной Наименование органа УВД Частота
UMGG_APPHomiel Approach126.100
UMGG_TWRHomiel Tower118.100



Спутниковое изображение